Time;durP1;ratioP1;P1;durP2;ratioP2;P2;SDS_P1;SDS_P2;PMS_P1;PMS_P2;Temp;Humidity;BMP_temperature;BMP_pressure;BME280_temperature;BME280_humidity;BME280_pressure;Samples;Min_cycle;Max_cycle;Signal;HPM_P1;HPM_P2
2022/09/30 00:00:32;;;;;;;9.40;4.70;;;23.40;54.20;;;;;;7680894;22;80645;-56
2022/09/30 00:03:33;;;;;;;8.68;4.93;;;23.40;54.30;;;;;;7679282;22;80277;-53
2022/09/30 00:06:36;;;;;;;10.25;5.57;;;23.40;54.20;;;;;;7680337;22;80255;-56
2022/09/30 00:09:36;;;;;;;9.70;5.10;;;23.40;54.20;;;;;;7680526;22;80651;-54
2022/09/30 00:12:37;;;;;;;7.00;5.13;;;23.40;54.20;;;;;;7680126;22;80537;-61
2022/09/30 00:15:38;;;;;;;7.18;4.88;;;23.40;54.30;;;;;;7679273;22;81927;-62
2022/09/30 00:18:39;;;;;;;10.23;5.43;;;23.40;54.30;;;;;;7680922;22;80309;-62
2022/09/30 00:21:39;;;;;;;11.18;5.30;;;23.40;54.20;;;;;;7681430;22;80093;-61
2022/09/30 00:24:40;;;;;;;7.88;5.03;;;23.40;54.20;;;;;;7681713;22;81248;-61
2022/09/30 00:27:40;;;;;;;8.38;5.35;;;23.40;54.20;;;;;;7680093;22;80809;-62
2022/09/30 00:30:41;;;;;;;8.20;5.25;;;23.30;54.10;;;;;;7680157;22;80352;-62
2022/09/30 00:33:42;;;;;;;8.93;5.20;;;23.30;54.20;;;;;;7678708;22;80360;-63
2022/09/30 00:36:43;;;;;;;6.95;4.80;;;23.40;54.30;;;;;;7680645;22;80362;-62
2022/09/30 00:39:43;;;;;;;8.23;4.50;;;23.40;54.20;;;;;;7679188;22;80834;-62
2022/09/30 00:42:45;;;;;;;8.15;5.40;;;23.30;54.30;;;;;;7679155;22;80823;-61
2022/09/30 00:45:45;;;;;;;7.53;5.10;;;23.30;54.20;;;;;;7679800;22;81455;-62
2022/09/30 00:48:46;;;;;;;8.23;5.25;;;23.40;54.10;;;;;;7678803;22;80229;-61
2022/09/30 00:51:46;;;;;;;9.38;4.50;;;23.30;54.20;;;;;;7652183;22;81521;-53
2022/09/30 00:54:47;;;;;;;9.88;5.80;;;23.30;54.20;;;;;;7680624;22;80800;-53
2022/09/30 00:57:47;;;;;;;7.60;4.80;;;23.30;54.20;;;;;;7679203;22;80273;-54
2022/09/30 01:00:48;;;;;;;9.18;5.30;;;23.30;54.10;;;;;;7676422;22;80137;-55
2022/09/30 01:03:49;;;;;;;8.65;5.57;;;23.30;54.20;;;;;;7681414;22;80141;-55
2022/09/30 01:06:49;;;;;;;7.35;4.72;;;23.30;54.30;;;;;;7677994;22;80289;-53
2022/09/30 01:09:50;;;;;;;9.68;4.97;;;23.30;54.30;;;;;;7681081;22;80198;-50
2022/09/30 01:12:51;;;;;;;7.30;4.45;;;23.30;54.20;;;;;;7678633;22;80136;-47
2022/09/30 01:15:51;;;;;;;7.82;5.05;;;23.30;54.30;;;;;;7681445;22;80295;-48
2022/09/30 01:18:52;;;;;;;7.60;4.57;;;23.30;54.40;;;;;;7680429;22;81218;-48
2022/09/30 01:21:52;;;;;;;10.30;5.53;;;23.30;54.20;;;;;;7676903;22;80376;-50
2022/09/30 01:24:53;;;;;;;6.07;4.30;;;23.30;54.20;;;;;;7679962;22;80348;-48
2022/09/30 01:27:53;;;;;;;7.97;4.55;;;23.30;54.30;;;;;;7680215;22;80295;-53
2022/09/30 01:30:53;;;;;;;8.70;5.38;;;23.40;54.30;;;;;;7678266;22;80305;-51
2022/09/30 01:33:54;;;;;;;5.97;4.32;;;23.30;54.20;;;;;;7680538;22;81728;-52
2022/09/30 01:36:54;;;;;;;7.55;4.68;;;23.30;54.30;;;;;;7675923;22;80494;-52
2022/09/30 01:39:55;;;;;;;7.15;4.55;;;23.30;54.20;;;;;;7682294;22;80884;-49
2022/09/30 01:42:55;;;;;;;8.63;5.00;;;23.30;54.20;;;;;;7679167;22;86859;-52
2022/09/30 01:45:57;;;;;;;7.13;4.88;;;23.30;54.20;;;;;;7679047;22;81364;-49
2022/09/30 01:48:57;;;;;;;7.03;4.55;;;23.30;54.20;;;;;;7678569;22;81916;-49
2022/09/30 01:51:58;;;;;;;8.40;5.10;;;23.40;54.30;;;;;;7681631;22;80390;-52
2022/09/30 01:54:58;;;;;;;6.80;4.90;;;23.40;54.30;;;;;;7676765;22;80495;-48
2022/09/30 01:57:59;;;;;;;9.48;5.32;;;23.30;54.20;;;;;;7677761;22;80677;-51
2022/09/30 02:01:00;;;;;;;6.82;4.55;;;23.30;54.20;;;;;;7677759;22;80198;-50
2022/09/30 02:04:00;;;;;;;7.32;5.00;;;23.30;54.20;;;;;;7681485;22;80546;-61
2022/09/30 02:07:01;;;;;;;9.93;5.20;;;23.40;54.30;;;;;;7676568;22;80775;-60
2022/09/30 02:10:01;;;;;;;7.50;4.75;;;23.40;54.30;;;;;;7678783;22;80789;-59
2022/09/30 02:13:02;;;;;;;6.78;4.53;;;23.30;54.30;;;;;;7680042;22;81215;-59
2022/09/30 02:16:11;;;;;;;6.72;4.82;;;23.30;54.30;;;;;;7678436;22;80716;-59
2022/09/30 02:19:11;;;;;;;7.03;4.22;;;23.30;54.50;;;;;;7680850;22;80712;-60
2022/09/30 02:22:12;;;;;;;4.93;3.90;;;23.30;54.50;;;;;;7681337;22;80949;-51
2022/09/30 02:25:14;;;;;;;6.60;3.80;;;23.30;54.60;;;;;;7677995;22;80800;-50
2022/09/30 02:28:14;;;;;;;8.27;4.40;;;23.30;54.60;;;;;;7678736;22;81555;-53
2022/09/30 02:31:15;;;;;;;6.32;4.13;;;23.30;54.70;;;;;;7677942;22;79904;-48
2022/09/30 02:34:15;;;;;;;5.57;4.40;;;23.30;54.80;;;;;;7665014;22;81692;-49
2022/09/30 02:37:16;;;;;;;6.65;4.68;;;23.30;54.80;;;;;;7678124;22;80417;-49
2022/09/30 02:40:16;;;;;;;5.75;3.85;;;23.30;54.80;;;;;;7673223;22;80425;-49
2022/09/30 02:43:17;;;;;;;7.45;3.88;;;23.30;54.80;;;;;;7679997;22;80396;-48
2022/09/30 02:46:17;;;;;;;5.43;3.83;;;23.30;54.80;;;;;;7677083;22;80075;-48
2022/09/30 02:49:18;;;;;;;6.97;3.97;;;23.30;54.90;;;;;;7677220;22;82258;-48
2022/09/30 02:52:19;;;;;;;7.65;3.67;;;23.30;54.90;;;;;;7680025;22;80225;-48
2022/09/30 02:55:19;;;;;;;5.80;4.00;;;23.30;55.00;;;;;;7679350;22;80552;-49
2022/09/30 02:58:20;;;;;;;6.07;4.35;;;23.30;55.00;;;;;;7679920;22;80902;-60
2022/09/30 03:01:20;;;;;;;5.85;3.95;;;23.30;55.10;;;;;;7678702;22;81415;-59
2022/09/30 03:04:21;;;;;;;5.45;3.80;;;23.30;55.10;;;;;;7678467;22;81670;-60
2022/09/30 03:07:22;;;;;;;7.95;4.03;;;23.30;55.10;;;;;;7680391;22;80944;-60
2022/09/30 03:10:22;;;;;;;7.03;4.10;;;23.30;55.10;;;;;;7679033;22;81594;-58
2022/09/30 03:13:23;;;;;;;6.80;4.30;;;23.30;55.10;;;;;;7679192;22;80226;-58
2022/09/30 03:16:23;;;;;;;5.25;3.92;;;23.30;55.20;;;;;;7681227;22;81110;-55
2022/09/30 03:19:24;;;;;;;9.85;4.07;;;23.30;55.10;;;;;;7678730;22;80375;-54
2022/09/30 03:22:24;;;;;;;8.88;4.63;;;23.30;55.00;;;;;;7681783;22;80356;-56
2022/09/30 03:25:25;;;;;;;5.50;4.00;;;23.30;55.00;;;;;;7679444;22;80203;-55
2022/09/30 03:28:25;;;;;;;6.80;3.78;;;23.30;54.90;;;;;;7679701;22;81205;-53
2022/09/30 03:31:26;;;;;;;6.18;4.53;;;23.30;54.90;;;;;;7681542;22;80047;-54
2022/09/30 03:34:26;;;;;;;8.05;4.25;;;23.40;54.70;;;;;;7679813;22;82054;-55
2022/09/30 03:37:27;;;;;;;8.43;4.43;;;23.30;54.70;;;;;;7680139;22;80587;-53
2022/09/30 03:40:27;;;;;;;8.70;4.35;;;23.30;54.60;;;;;;7678731;22;80387;-56
2022/09/30 03:43:28;;;;;;;6.13;3.95;;;23.40;54.60;;;;;;7677216;22;80390;-56
2022/09/30 03:46:28;;;;;;;6.95;4.10;;;23.40;54.50;;;;;;7681778;22;80341;-54
2022/09/30 03:49:29;;;;;;;7.32;4.43;;;23.40;54.40;;;;;;7676277;22;80389;-53
2022/09/30 03:52:29;;;;;;;5.88;4.68;;;23.40;54.40;;;;;;7679401;22;80354;-59
2022/09/30 03:55:32;;;;;;;9.23;4.15;;;23.40;54.40;;;;;;7679620;22;81831;-64
2022/09/30 03:58:33;;;;;;;6.15;3.92;;;23.40;54.30;;;;;;7680811;22;80087;-65
2022/09/30 04:01:34;;;;;;;6.45;3.67;;;23.40;54.30;;;;;;7679227;22;82365;-57
2022/09/30 04:04:34;;;;;;;4.97;3.72;;;23.50;54.20;;;;;;7678402;22;80279;-56
2022/09/30 04:07:35;;;;;;;9.32;4.40;;;23.50;54.20;;;;;;7678022;22;80368;-53
2022/09/30 04:10:35;;;;;;;5.68;3.88;;;23.50;54.30;;;;;;7681377;22;81773;-50
2022/09/30 04:13:36;;;;;;;7.85;4.18;;;23.50;54.50;;;;;;7679413;22;84075;-53
2022/09/30 04:16:36;;;;;;;12.38;4.22;;;23.50;54.90;;;;;;7679673;22;81213;-56
2022/09/30 04:19:39;;;;;;;8.57;4.40;;;23.60;55.40;;;;;;7679121;22;81611;-58
2022/09/30 04:22:39;;;;;;;8.02;4.30;;;23.60;55.60;;;;;;7674776;22;80739;-57
2022/09/30 04:25:39;;;;;;;8.68;4.35;;;23.60;56.00;;;;;;7680585;22;80220;-56
2022/09/30 04:28:40;;;;;;;7.22;4.38;;;23.70;56.30;;;;;;7680505;22;81493;-56
2022/09/30 04:31:40;;;;;;;8.65;4.10;;;23.70;56.30;;;;;;7680028;22;80191;-56
2022/09/30 04:34:41;;;;;;;13.63;3.95;;;23.70;56.30;;;;;;7679063;22;81018;-65
2022/09/30 04:37:42;;;;;;;7.50;3.70;;;23.70;56.30;;;;;;7677957;22;82001;-67
2022/09/30 04:40:42;;;;;;;6.57;4.18;;;23.70;56.20;;;;;;7680515;22;80669;-63
2022/09/30 04:43:45;;;;;;;7.38;3.58;;;23.70;56.20;;;;;;7677373;22;80348;-65
2022/09/30 04:46:46;;;;;;;8.32;4.35;;;23.70;56.20;;;;;;7678113;22;80689;-62
2022/09/30 04:49:46;;;;;;;11.00;4.50;;;23.70;56.00;;;;;;7681133;22;81290;-60
2022/09/30 04:52:47;;;;;;;16.33;4.63;;;23.70;56.10;;;;;;7679569;22;80630;-58
2022/09/30 04:55:47;;;;;;;8.13;4.07;;;23.70;56.60;;;;;;7676614;22;80237;-57
2022/09/30 04:58:48;;;;;;;17.88;4.57;;;23.80;56.70;;;;;;7677926;22;80843;-58
2022/09/30 05:01:48;;;;;;;18.23;4.07;;;23.70;56.60;;;;;;7679622;22;80459;-70
2022/09/30 05:04:49;;;;;;;5.05;3.85;;;23.70;57.00;;;;;;7680345;22;82030;-59
2022/09/30 05:07:49;;;;;;;6.30;3.55;;;23.70;57.60;;;;;;7679530;22;80676;-60
2022/09/30 05:10:50;;;;;;;15.52;4.45;;;23.80;57.20;;;;;;7679964;22;80417;-62
2022/09/30 05:13:50;;;;;;;10.90;4.32;;;23.80;57.10;;;;;;7667791;22;81605;-61
2022/09/30 05:16:51;;;;;;;8.13;4.35;;;23.70;57.20;;;;;;7661635;22;81612;-60
2022/09/30 05:19:51;;;;;;;5.50;4.07;;;23.80;57.20;;;;;;7660670;22;80794;-61
2022/09/30 05:22:52;;;;;;;6.85;3.55;;;23.80;56.80;;;;;;7663673;22;80854;-62
2022/09/30 05:25:52;;;;;;;7.28;4.60;;;23.80;56.60;;;;;;7670990;22;80426;-62
2022/09/30 05:28:53;;;;;;;9.32;4.28;;;23.80;56.50;;;;;;7673196;22;80117;-60
2022/09/30 05:31:53;;;;;;;15.50;4.50;;;23.70;56.70;;;;;;7672396;22;82106;-61
2022/09/30 05:34:54;;;;;;;9.43;4.63;;;23.70;56.90;;;;;;7677943;22;80336;-60
2022/09/30 05:37:55;;;;;;;6.70;4.22;;;23.70;57.00;;;;;;7673572;22;80619;-62
2022/09/30 05:40:55;;;;;;;7.80;4.00;;;23.70;56.80;;;;;;7661969;22;80978;-61
2022/09/30 05:43:59;;;;;;;9.90;5.05;;;23.70;56.80;;;;;;7663874;22;81117;-59
2022/09/30 05:47:00;;;;;;;11.55;4.75;;;23.70;56.70;;;;;;7657929;22;81335;-59
2022/09/30 05:50:00;;;;;;;6.50;4.05;;;23.70;56.80;;;;;;7674726;22;80429;-59
2022/09/30 05:53:01;;;;;;;12.98;4.78;;;23.60;56.80;;;;;;7676148;22;80823;-57
2022/09/30 05:56:01;;;;;;;7.35;4.22;;;23.70;56.80;;;;;;7678202;22;80401;-57
2022/09/30 05:59:02;;;;;;;6.68;4.45;;;23.60;56.60;;;;;;7678558;22;82242;-58
2022/09/30 06:02:02;;;;;;;7.32;4.50;;;23.60;56.50;;;;;;7678032;22;80073;-52
2022/09/30 06:05:03;;;;;;;7.60;4.35;;;23.60;56.20;;;;;;7678034;22;82590;-51
2022/09/30 06:08:05;;;;;;;9.82;4.78;;;23.60;56.50;;;;;;7679187;22;80297;-50
2022/09/30 06:11:06;;;;;;;7.40;4.50;;;23.60;56.90;;;;;;7678922;22;81486;-54
2022/09/30 06:14:07;;;;;;;8.18;4.38;;;23.60;56.40;;;;;;7679959;22;80590;-53
2022/09/30 06:17:07;;;;;;;9.10;4.43;;;23.60;56.30;;;;;;7679688;22;80571;-51
2022/09/30 06:20:08;;;;;;;7.40;4.40;;;23.50;56.30;;;;;;7647546;22;83480;-59
2022/09/30 06:23:08;;;;;;;8.02;4.75;;;23.50;56.20;;;;;;7646797;22;80557;-60
2022/09/30 06:26:10;;;;;;;8.18;4.65;;;23.50;56.30;;;;;;7672897;22;79873;-59
2022/09/30 06:29:10;;;;;;;9.43;5.43;;;23.50;56.20;;;;;;7669945;22;82036;-59
2022/09/30 06:32:12;;;;;;;9.48;5.10;;;23.50;56.20;;;;;;7673091;22;84945;-59
2022/09/30 06:35:12;;;;;;;8.95;4.65;;;23.50;56.20;;;;;;7669745;22;80746;-59
2022/09/30 06:38:16;;;;;;;10.52;5.63;;;23.50;56.20;;;;;;7673165;22;80397;-61
2022/09/30 06:41:17;;;;;;;6.78;4.65;;;23.50;56.20;;;;;;7671215;22;80711;-62
2022/09/30 06:44:17;;;;;;;8.05;4.90;;;23.50;56.20;;;;;;7671022;22;80488;-61
2022/09/30 06:47:18;;;;;;;7.15;4.47;;;23.50;56.10;;;;;;7675236;22;80598;-61
2022/09/30 06:50:21;;;;;;;9.13;4.60;;;23.50;56.00;;;;;;7681356;22;80897;-62
2022/09/30 06:53:21;;;;;;;7.63;5.10;;;23.50;56.10;;;;;;7679088;22;80733;-62
2022/09/30 06:56:22;;;;;;;12.90;5.35;;;23.40;56.10;;;;;;7676728;22;80262;-62
2022/09/30 06:59:22;;;;;;;6.90;4.75;;;23.40;56.00;;;;;;7677413;22;80978;-62
2022/09/30 07:02:23;;;;;;;8.68;4.72;;;23.40;56.00;;;;;;7672694;22;80975;-62
2022/09/30 07:05:26;;;;;;;7.45;4.28;;;23.40;56.00;;;;;;7676507;22;81866;-63
2022/09/30 07:08:30;;;;;;;8.50;5.13;;;23.40;56.10;;;;;;7679601;22;82334;-62
2022/09/30 07:11:30;;;;;;;10.40;4.50;;;23.40;56.10;;;;;;7677483;22;82075;-62
2022/09/30 07:14:32;;;;;;;6.70;4.68;;;23.40;56.10;;;;;;7680687;22;80382;-61
2022/09/30 07:17:32;;;;;;;16.52;6.22;;;23.40;56.10;;;;;;7679301;22;80382;-62
2022/09/30 07:20:32;;;;;;;9.45;4.78;;;23.40;56.20;;;;;;7680609;22;80461;-62
2022/09/30 07:23:33;;;;;;;10.27;5.70;;;23.40;56.20;;;;;;7678678;22;80890;-61
2022/09/30 07:26:33;;;;;;;10.52;5.03;;;23.40;56.20;;;;;;7681500;22;81166;-63
2022/09/30 07:29:34;;;;;;;7.60;5.28;;;23.40;56.30;;;;;;7672559;22;82163;-63
2022/09/30 07:32:34;;;;;;;8.43;4.78;;;23.40;56.40;;;;;;7679504;22;80086;-63
2022/09/30 07:35:36;;;;;;;8.32;5.03;;;23.40;56.20;;;;;;7676397;22;80839;-59
2022/09/30 07:38:37;;;;;;;9.95;4.38;;;23.40;56.30;;;;;;7678556;22;80948;-60
2022/09/30 07:41:38;;;;;;;9.20;5.35;;;23.40;56.30;;;;;;7661781;22;80394;-58
2022/09/30 07:44:43;;;;;;;7.45;4.32;;;23.40;56.30;;;;;;7674831;22;80342;-57
2022/09/30 07:47:43;;;;;;;8.27;5.30;;;23.40;57.10;;;;;;7677786;22;80275;-59
2022/09/30 07:50:44;;;;;;;9.07;5.00;;;23.40;56.40;;;;;;7675470;22;80602;-58
2022/09/30 07:53:45;;;;;;;7.40;4.53;;;23.40;56.50;;;;;;7678966;22;80371;-63
2022/09/30 07:56:45;;;;;;;7.72;4.72;;;23.40;56.60;;;;;;7680696;22;81271;-62
2022/09/30 07:59:46;;;;;;;10.15;5.53;;;23.40;56.70;;;;;;7651555;22;80323;-62
2022/09/30 08:02:46;;;;;;;10.98;6.03;;;23.40;56.80;;;;;;7674958;22;80305;-62
2022/09/30 08:05:47;;;;;;;8.70;5.28;;;23.40;56.90;;;;;;7673217;22;80973;-63
2022/09/30 08:08:47;;;;;;;7.97;4.88;;;23.40;56.90;;;;;;7678763;22;80409;-62
2022/09/30 08:11:48;;;;;;;9.82;5.65;;;23.40;56.90;;;;;;7679045;22;81154;-59
2022/09/30 08:14:48;;;;;;;10.38;5.57;;;23.30;57.00;;;;;;7670810;22;80368;-58
2022/09/30 08:17:49;;;;;;;10.30;5.55;;;23.40;57.10;;;;;;7674687;22;81120;-58
2022/09/30 08:20:49;;;;;;;9.63;5.68;;;23.40;57.00;;;;;;7680538;22;80228;-59
2022/09/30 08:23:50;;;;;;;8.32;5.25;;;23.30;57.10;;;;;;7677432;22;81661;-58
2022/09/30 08:26:50;;;;;;;8.13;4.97;;;23.30;57.10;;;;;;7680553;22;80177;-60
2022/09/30 08:29:51;;;;;;;10.73;6.28;;;23.30;57.30;;;;;;7681449;22;81023;-59
2022/09/30 08:32:51;;;;;;;9.90;5.95;;;23.30;57.00;;;;;;7679781;22;80056;-59
2022/09/30 08:35:52;;;;;;;7.35;4.57;;;23.30;57.10;;;;;;7680109;22;81709;-58
2022/09/30 08:38:52;;;;;;;22.60;6.28;;;23.30;57.20;;;;;;7670329;22;80682;-58
2022/09/30 08:41:53;;;;;;;13.65;5.82;;;23.30;57.20;;;;;;7679861;22;80688;-58
2022/09/30 08:44:53;;;;;;;10.00;5.43;;;23.30;57.30;;;;;;7678625;22;80755;-59
2022/09/30 08:47:54;;;;;;;9.65;5.68;;;23.30;57.10;;;;;;7676987;22;80280;-59
2022/09/30 08:50:54;;;;;;;6.07;4.60;;;23.30;57.10;;;;;;7661123;22;81931;-58
2022/09/30 08:53:55;;;;;;;10.68;5.25;;;23.30;57.10;;;;;;7645465;22;80115;-60
2022/09/30 08:56:55;;;;;;;11.05;4.35;;;23.30;57.30;;;;;;7671409;22;81372;-60
2022/09/30 08:59:56;;;;;;;13.60;5.15;;;23.40;57.20;;;;;;7668770;22;83667;-59
2022/09/30 09:02:56;;;;;;;8.88;4.88;;;23.40;57.30;;;;;;7678317;22;81966;-59
2022/09/30 09:05:57;;;;;;;8.38;4.85;;;23.40;57.40;;;;;;7673823;22;80489;-54
2022/09/30 09:08:57;;;;;;;9.15;5.63;;;23.40;57.90;;;;;;7675126;22;80326;-53
2022/09/30 09:11:59;;;;;;;7.68;4.70;;;23.40;57.30;;;;;;7677485;22;80527;-62
2022/09/30 09:14:59;;;;;;;9.15;5.05;;;23.40;57.20;;;;;;7676270;22;80562;-61
2022/09/30 09:17:59;;;;;;;9.35;4.95;;;23.40;57.10;;;;;;7678443;22;80419;-60
2022/09/30 09:21:00;;;;;;;7.47;4.68;;;23.30;56.90;;;;;;7649518;22;81721;-53
2022/09/30 09:24:01;;;;;;;9.25;5.57;;;23.40;57.00;;;;;;7673536;22;80531;-58
2022/09/30 09:27:02;;;;;;;8.20;4.68;;;23.40;57.20;;;;;;7676870;22;80465;-58
2022/09/30 09:30:04;;;;;;;8.85;5.28;;;23.40;57.10;;;;;;7679175;22;80451;-59
2022/09/30 09:33:05;;;;;;;8.90;5.47;;;23.30;57.20;;;;;;7651891;22;81652;-58
2022/09/30 09:36:05;;;;;;;9.82;5.30;;;23.40;57.20;;;;;;7676210;22;80102;-58
2022/09/30 09:39:06;;;;;;;7.38;5.03;;;23.40;57.20;;;;;;7678067;22;80743;-60
2022/09/30 09:42:07;;;;;;;7.30;4.85;;;23.30;57.10;;;;;;7678263;22;81356;-59
2022/09/30 09:45:07;;;;;;;10.15;5.35;;;23.40;57.20;;;;;;7678427;22;80061;-59
2022/09/30 09:48:08;;;;;;;8.40;4.97;;;23.30;57.10;;;;;;7671899;22;80475;-58
2022/09/30 09:51:08;;;;;;;9.13;5.38;;;23.30;57.20;;;;;;7668967;22;80187;-59
2022/09/30 09:54:09;;;;;;;8.70;4.93;;;23.30;57.20;;;;;;7673005;22;80682;-58
2022/09/30 09:57:09;;;;;;;5.75;4.22;;;23.30;57.10;;;;;;7651912;22;83035;-58
2022/09/30 10:03:29;;;;;;;7.35;4.78;;;23.30;57.20;;;;;;7672602;22;81166;-59
2022/09/30 10:06:30;;;;;;;13.15;5.15;;;23.30;57.10;;;;;;7670679;22;80811;-59
2022/09/30 10:09:31;;;;;;;8.15;5.28;;;23.30;57.10;;;;;;7674767;22;81275;-59
2022/09/30 10:12:31;;;;;;;6.38;4.68;;;23.30;57.10;;;;;;7672496;22;80163;-59
2022/09/30 10:15:32;;;;;;;10.10;4.60;;;23.30;57.10;;;;;;7675129;22;80775;-58
2022/09/30 10:18:32;;;;;;;7.50;4.78;;;23.30;57.10;;;;;;7679151;22;80417;-59
2022/09/30 10:21:33;;;;;;;7.10;4.20;;;23.30;56.90;;;;;;7680508;22;80444;-58
2022/09/30 10:24:33;;;;;;;6.13;4.20;;;23.30;57.10;;;;;;7677452;22;80232;-57
2022/09/30 10:27:34;;;;;;;7.72;4.55;;;23.30;57.10;;;;;;7678405;22;80378;-59
2022/09/30 10:30:34;;;;;;;8.45;4.43;;;23.30;57.10;;;;;;7675954;22;80280;-59
2022/09/30 10:33:35;;;;;;;6.50;4.53;;;23.30;57.10;;;;;;7673089;22;80389;-58
2022/09/30 10:36:35;;;;;;;5.78;3.55;;;23.30;57.00;;;;;;7677881;22;80960;-59
2022/09/30 10:39:36;;;;;;;6.55;4.53;;;23.30;57.10;;;;;;7676959;22;80263;-63
2022/09/30 10:42:36;;;;;;;7.70;4.65;;;23.30;56.90;;;;;;7677489;22;80270;-63
2022/09/30 10:45:37;;;;;;;6.70;4.10;;;23.30;57.10;;;;;;7676368;22;80360;-62
2022/09/30 10:48:38;;;;;;;6.78;4.25;;;23.30;57.00;;;;;;7674908;22;80450;-61
2022/09/30 10:51:38;;;;;;;8.25;4.50;;;23.30;57.00;;;;;;7671363;22;80692;-64
2022/09/30 10:54:39;;;;;;;5.57;4.28;;;23.30;57.20;;;;;;7678178;22;80308;-62
2022/09/30 10:57:39;;;;;;;6.28;3.70;;;23.30;57.20;;;;;;7676281;22;80993;-59
2022/09/30 11:00:40;;;;;;;6.53;3.95;;;23.30;57.20;;;;;;7658286;22;81538;-58
2022/09/30 11:03:41;;;;;;;7.00;4.22;;;23.30;57.20;;;;;;7675283;22;81143;-57
2022/09/30 11:06:42;;;;;;;4.40;3.38;;;23.30;57.20;;;;;;7672880;22;80338;-57
2022/09/30 11:09:42;;;;;;;6.88;4.38;;;23.30;57.40;;;;;;7667592;22;80439;-59
2022/09/30 11:12:43;;;;;;;8.32;3.63;;;23.40;57.30;;;;;;7671178;22;80815;-59
2022/09/30 11:15:44;;;;;;;7.90;4.50;;;23.40;57.50;;;;;;7672926;22;80530;-61
2022/09/30 11:18:44;;;;;;;6.78;4.60;;;23.40;57.50;;;;;;7675674;22;80469;-62
2022/09/30 11:21:45;;;;;;;8.20;4.72;;;23.40;57.60;;;;;;7665598;22;80598;-62
2022/09/30 11:24:45;;;;;;;12.90;5.90;;;23.40;57.90;;;;;;7661448;22;81016;-61
2022/09/30 11:27:48;;;;;;;30.88;7.68;;;23.40;58.30;;;;;;7669977;22;81412;-62
2022/09/30 11:30:48;;;;;;;40.38;8.98;;;23.40;58.70;;;;;;7648687;22;82344;-61
2022/09/30 11:33:49;;;;;;;34.80;11.15;;;23.40;58.70;;;;;;7677894;22;80272;-62
2022/09/30 11:36:49;;;;;;;43.40;13.48;;;23.50;59.00;;;;;;7666810;22;84245;-61
2022/09/30 11:39:50;;;;;;;39.58;13.15;;;23.50;59.70;;;;;;7647143;22;83451;-64
2022/09/30 11:42:50;;;;;;;43.92;12.68;;;23.50;60.10;;;;;;7665473;22;84094;-65
2022/09/30 11:45:54;;;;;;;47.85;13.30;;;23.50;60.50;;;;;;7679946;22;83290;-62
2022/09/30 11:48:54;;;;;;;27.85;11.07;;;23.50;60.30;;;;;;7676457;22;84130;-63
2022/09/30 11:51:55;;;;;;;29.52;11.18;;;23.50;60.20;;;;;;7674481;22;83025;-65
2022/09/30 11:54:55;;;;;;;37.25;11.38;;;23.50;60.20;;;;;;7675848;22;83933;-65
2022/09/30 11:57:56;;;;;;;33.13;10.68;;;23.50;60.00;;;;;;7674670;22;82835;-63
2022/09/30 12:00:56;;;;;;;24.20;9.43;;;23.50;60.00;;;;;;7674687;22;82852;-62
2022/09/30 12:03:57;;;;;;;25.42;9.35;;;23.50;60.10;;;;;;7680152;22;82948;-64
2022/09/30 12:06:57;;;;;;;43.08;10.88;;;23.50;59.90;;;;;;7679959;22;80451;-64
2022/09/30 12:09:58;;;;;;;23.30;9.50;;;23.50;59.80;;;;;;7645889;22;83293;-60
2022/09/30 12:12:58;;;;;;;24.35;8.68;;;23.50;59.70;;;;;;7678945;22;83361;-60
2022/09/30 12:15:59;;;;;;;21.70;8.32;;;23.40;59.20;;;;;;7681964;22;81095;-60
2022/09/30 12:19:00;;;;;;;21.35;7.80;;;23.20;59.30;;;;;;7682728;22;80685;-62
2022/09/30 12:22:00;;;;;;;18.35;8.82;;;23.10;59.50;;;;;;7680594;22;81572;-61
2022/09/30 12:25:01;;;;;;;29.10;9.57;;;23.10;59.80;;;;;;7681740;22;80414;-62
2022/09/30 12:30:15;;;;;;;27.17;9.85;;;23.00;60.40;;;;;;7682748;22;81583;-58
2022/09/30 12:31:22;;;;;;;22.42;10.27;;;22.90;60.60;;;;;;7682475;22;81473;-58
2022/09/30 12:34:23;;;;;;;22.30;10.98;;;22.80;61.10;;;;;;7676042;22;83764;-57
2022/09/30 12:37:23;;;;;;;25.60;11.38;;;22.80;61.70;;;;;;7674480;22;82834;-58
2022/09/30 12:40:24;;;;;;;17.77;10.35;;;22.70;61.90;;;;;;7676154;22;82986;-59
2022/09/30 12:43:24;;;;;;;32.15;12.07;;;22.70;62.10;;;;;;7674665;22;83480;-58
2022/09/30 12:46:25;;;;;;;28.20;14.05;;;22.70;62.50;;;;;;7670646;22;82825;-62
2022/09/30 12:49:25;;;;;;;24.15;12.68;;;22.60;62.50;;;;;;7660909;22;83491;-62
2022/09/30 12:52:26;;;;;;;23.30;13.30;;;22.60;62.70;;;;;;7673103;22;85507;-62
2022/09/30 12:55:27;;;;;;;28.67;12.90;;;22.60;62.80;;;;;;7674865;22;83454;-61
2022/09/30 12:58:28;;;;;;;26.00;10.95;;;22.60;62.70;;;;;;7676172;22;83113;-62
2022/09/30 13:01:28;;;;;;;20.27;10.43;;;22.50;62.40;;;;;;7673110;22;82905;-62
2022/09/30 13:04:30;;;;;;;23.55;10.38;;;22.50;62.30;;;;;;7655340;22;83720;-58
2022/09/30 13:07:31;;;;;;;17.45;8.77;;;22.50;62.20;;;;;;7670979;22;84046;-58
2022/09/30 13:10:31;;;;;;;19.67;8.50;;;22.40;62.10;;;;;;7648933;22;83129;-58
2022/09/30 13:13:35;;;;;;;17.50;8.55;;;22.40;62.10;;;;;;7676273;22;80679;-57
2022/09/30 13:16:36;;;;;;;13.95;8.00;;;22.40;62.00;;;;;;7675159;22;81023;-55
2022/09/30 13:19:39;;;;;;;16.25;8.43;;;22.40;61.90;;;;;;7675786;22;80873;-56
2022/09/30 13:22:39;;;;;;;15.90;8.57;;;22.40;61.80;;;;;;7677845;22;80527;-56
2022/09/30 13:25:40;;;;;;;9.90;6.97;;;22.40;61.70;;;;;;7681258;22;80126;-59
2022/09/30 13:28:41;;;;;;;12.68;7.43;;;22.30;61.70;;;;;;7681272;22;80193;-57
2022/09/30 13:31:41;;;;;;;12.52;7.03;;;22.40;61.80;;;;;;7646925;22;81695;-58
2022/09/30 13:34:42;;;;;;;13.20;6.35;;;22.40;62.70;;;;;;7678361;22;80655;-58
2022/09/30 13:37:42;;;;;;;9.52;5.40;;;22.60;62.50;;;;;;7675160;22;81634;-59
2022/09/30 13:40:43;;;;;;;9.45;6.22;;;22.70;62.60;;;;;;7680610;22;81084;-58
2022/09/30 13:43:43;;;;;;;9.85;5.95;;;22.80;62.50;;;;;;7680126;22;79935;-56
2022/09/30 13:46:45;;;;;;;7.30;4.75;;;22.90;62.40;;;;;;7676989;22;80348;-57
2022/09/30 13:49:45;;;;;;;11.60;5.15;;;22.90;62.20;;;;;;7681446;22;80390;-58
2022/09/30 13:52:46;;;;;;;15.90;6.43;;;23.00;62.30;;;;;;7662953;22;80747;-59
2022/09/30 13:55:49;;;;;;;13.63;5.78;;;23.00;62.50;;;;;;7677903;22;80663;-58
2022/09/30 13:58:51;;;;;;;9.25;5.40;;;23.10;62.40;;;;;;7675348;22;81155;-59
2022/09/30 14:01:55;;;;;;;10.13;5.28;;;23.10;62.20;;;;;;7674210;22;81377;-59
2022/09/30 14:04:59;;;;;;;8.65;5.00;;;23.20;62.20;;;;;;7621543;22;80586;-59
2022/09/30 14:07:59;;;;;;;9.60;4.65;;;23.20;62.10;;;;;;7677426;22;80510;-58
2022/09/30 14:11:00;;;;;;;9.45;4.53;;;23.20;62.20;;;;;;7671456;22;81237;-59
2022/09/30 14:14:00;;;;;;;9.65;5.20;;;23.20;61.70;;;;;;7671893;22;80538;-58
2022/09/30 14:17:02;;;;;;;12.68;4.80;;;23.30;61.50;;;;;;7666664;22;80504;-52
2022/09/30 14:20:03;;;;;;;17.08;5.07;;;23.30;61.40;;;;;;7674016;22;80668;-49
2022/09/30 14:23:04;;;;;;;8.00;4.35;;;23.40;61.40;;;;;;7672745;22;81229;-54
2022/09/30 14:26:04;;;;;;;10.80;4.53;;;23.30;61.50;;;;;;7676236;22;80149;-51
2022/09/30 14:29:05;;;;;;;8.57;3.90;;;23.40;61.30;;;;;;7675030;22;80333;-55
2022/09/30 14:32:05;;;;;;;12.60;4.57;;;23.40;61.40;;;;;;7681545;22;81872;-52
2022/09/30 14:35:06;;;;;;;13.90;4.22;;;23.40;61.50;;;;;;7673718;22;80113;-51
2022/09/30 14:38:06;;;;;;;7.35;4.20;;;23.40;61.50;;;;;;7678202;22;80740;-54
2022/09/30 14:41:07;;;;;;;6.60;4.10;;;23.40;61.10;;;;;;7654754;22;81595;-52
2022/09/30 14:44:08;;;;;;;6.68;3.60;;;23.40;61.00;;;;;;7676532;22;81552;-53
2022/09/30 14:47:08;;;;;;;5.30;3.53;;;23.40;60.60;;;;;;7680758;22;80243;-48
2022/09/30 14:50:09;;;;;;;6.72;3.75;;;23.40;60.70;;;;;;7680085;22;80246;-54
2022/09/30 14:53:09;;;;;;;7.05;3.50;;;23.40;60.70;;;;;;7666570;22;81191;-54
2022/09/30 14:56:10;;;;;;;5.65;3.78;;;23.30;61.00;;;;;;7672343;22;80959;-60
2022/09/30 14:59:11;;;;;;;7.35;4.45;;;23.40;61.20;;;;;;7669985;22;81483;-59
2022/09/30 15:02:11;;;;;;;4.72;3.25;;;23.50;61.30;;;;;;7671244;22;84728;-57
2022/09/30 15:05:12;;;;;;;8.55;3.25;;;23.50;61.20;;;;;;7675295;22;80330;-58
2022/09/30 15:08:12;;;;;;;5.75;3.40;;;23.50;61.20;;;;;;7674450;22;80271;-57
2022/09/30 15:11:13;;;;;;;4.68;2.75;;;23.60;61.30;;;;;;7646474;22;82179;-59
2022/09/30 15:14:14;;;;;;;5.50;3.67;;;23.60;61.20;;;;;;7675621;22;80895;-58
2022/09/30 15:17:14;;;;;;;8.07;3.85;;;23.60;61.20;;;;;;7674532;22;80253;-57
2022/09/30 15:20:15;;;;;;;7.03;3.85;;;23.60;61.10;;;;;;7675044;22;80419;-59
2022/09/30 15:23:15;;;;;;;5.03;3.42;;;23.70;61.30;;;;;;7676967;22;81219;-59
2022/09/30 15:26:17;;;;;;;5.32;3.40;;;23.70;61.30;;;;;;7678435;22;81768;-57
2022/09/30 15:29:17;;;;;;;6.07;3.63;;;23.70;61.30;;;;;;7681310;22;80480;-58
2022/09/30 15:32:18;;;;;;;16.70;3.42;;;23.70;61.30;;;;;;7682588;22;80294;-56
2022/09/30 15:35:19;;;;;;;6.05;3.72;;;23.70;61.60;;;;;;7651634;22;82898;-54
2022/09/30 15:38:20;;;;;;;9.75;3.40;;;23.70;62.30;;;;;;7673317;22;81035;-56